Spout Spring, Virginia
Current Conditions -  °F | °C
As of 10:15 PM on Saturday 25 Oct 2014 (Local Time) from K0V4 Reporting Station
Clear Clear  
Wind Chill: 59°   Ceiling: Unl
Heat Index: 59°   Visibility: 10mi
Dew Point: 49°   Wind: 7mph
Humidity: 68%   Direction: 220°SW
Pressure: 29.84"   Gusts: NA
Location:  37.35°N, 78.91°W
Report Text: K0V4 260215Z AUTO 22006KT 10SM CLR 15/09 A2984 RMK AO1 T01510092
Loading
Personal Weather Stations






























Interactive Weather Map
Tropical Storm Tracking
New forecast layout! Learn more

10-Day Weather Forecast

Advertisements
Track Severe Weather on mobile